Time;durP1;ratioP1;P1;durP2;ratioP2;P2;SDS_P1;SDS_P2;PMS_P1;PMS_P2;Temp;Humidity;BMP_temperature;BMP_pressure;BME280_temperature;BME280_humidity;BME280_pressure;Samples;Min_cycle;Max_cycle;Signal;HPM_P1;HPM_P2
2021/12/30 00:01:25;;;;;;;26.25;3.95;;;;;;;;;;5054458;28;20039;-73
2021/12/30 00:03:52;;;;;;;23.15;4.50;;;;;;;;;;5059366;28;20147;-70
2021/12/30 00:06:21;;;;;;;27.90;5.18;;;;;;;;;;5061796;28;20048;-69
2021/12/30 00:08:47;;;;;;;23.77;5.05;;;;;;;;;;5054546;28;20020;-69
2021/12/30 00:11:14;;;;;;;21.25;4.00;;;;;;;;;;5057085;28;20112;-71
2021/12/30 00:13:44;;;;;;;21.45;4.55;;;;;;;;;;5060069;28;20136;-69
2021/12/30 00:16:11;;;;;;;19.75;4.55;;;;;;;;;;5060083;28;20039;-71
2021/12/30 00:18:38;;;;;;;19.98;4.05;;;;;;;;;;5050013;28;20510;-70
2021/12/30 00:21:04;;;;;;;21.92;3.78;;;;;;;;;;5061145;28;20039;-70
2021/12/30 00:23:30;;;;;;;23.55;3.83;;;;;;;;;;5060345;28;20032;-71
2021/12/30 00:25:57;;;;;;;27.02;4.30;;;;;;;;;;5060031;28;20062;-72
2021/12/30 00:28:23;;;;;;;26.45;3.95;;;;;;;;;;5074455;28;20484;-70
2021/12/30 00:30:51;;;;;;;19.48;4.07;;;;;;;;;;5082097;28;20107;-70
2021/12/30 00:33:18;;;;;;;21.35;4.07;;;;;;;;;;5084555;28;20024;-73
2021/12/30 00:35:44;;;;;;;19.05;3.72;;;;;;;;;;5081796;28;20412;-71
2021/12/30 00:38:10;;;;;;;23.35;4.50;;;;;;;;;;5083356;28;20036;-72
2021/12/30 00:40:38;;;;;;;24.27;4.43;;;;;;;;;;5082843;28;20028;-72
2021/12/30 00:43:04;;;;;;;25.90;4.13;;;;;;;;;;5084484;28;20024;-70
2021/12/30 00:45:31;;;;;;;21.98;4.70;;;;;;;;;;5078886;28;20085;-73
2021/12/30 00:47:58;;;;;;;16.83;3.88;;;;;;;;;;5082157;28;20024;-71
2021/12/30 00:50:25;;;;;;;21.05;4.40;;;;;;;;;;5084761;28;20056;-70
2021/12/30 00:52:51;;;;;;;24.17;5.00;;;;;;;;;;5086215;28;20485;-73
2021/12/30 00:55:17;;;;;;;24.83;4.38;;;;;;;;;;5081360;28;20085;-70
2021/12/30 00:57:44;;;;;;;19.05;5.13;;;;;;;;;;5089508;28;20090;-71
2021/12/30 01:00:12;;;;;;;28.10;4.63;;;;;;;;;;5092148;28;20078;-71
2021/12/30 01:02:38;;;;;;;18.13;4.35;;;;;;;;;;5084554;28;20028;-72
2021/12/30 01:05:05;;;;;;;21.77;4.13;;;;;;;;;;5088892;28;20599;-73
2021/12/30 01:07:31;;;;;;;23.35;5.13;;;;;;;;;;5049706;28;20039;-71
2021/12/30 01:09:59;;;;;;;24.83;4.10;;;;;;;;;;5092779;28;20051;-71
2021/12/30 01:12:25;;;;;;;19.50;4.22;;;;;;;;;;5091455;28;20089;-73
2021/12/30 01:14:52;;;;;;;22.60;5.55;;;;;;;;;;5094784;28;20112;-70
2021/12/30 01:17:39;;;;;;;21.00;3.40;;;;;;;;;;5084187;28;20099;-70
2021/12/30 01:20:06;;;;;;;20.75;4.97;;;;;;;;;;5086770;28;20032;-69
2021/12/30 01:22:33;;;;;;;17.40;4.28;;;;;;;;;;5095959;28;20020;-70
2021/12/30 01:24:59;;;;;;;33.42;4.80;;;;;;;;;;5079891;28;20024;-70
2021/12/30 01:27:25;;;;;;;30.67;5.68;;;;;;;;;;5077625;28;20027;-73
2021/12/30 01:29:52;;;;;;;25.83;4.90;;;;;;;;;;5077497;28;20028;-69
2021/12/30 01:32:19;;;;;;;26.88;5.53;;;;;;;;;;5068356;28;20060;-70
2021/12/30 01:34:47;;;;;;;19.25;3.75;;;;;;;;;;5090127;28;20488;-69
2021/12/30 01:37:14;;;;;;;20.30;4.13;;;;;;;;;;5091909;28;20460;-73
2021/12/30 01:39:41;;;;;;;16.73;4.25;;;;;;;;;;5081401;28;20024;-69
2021/12/30 02:54:00;;;;;;;22.02;4.63;;;;;;;;;;4889777;28;20588;-94
2021/12/30 02:56:27;;;;;;;20.50;3.90;;;;;;;;;;5038534;28;20123;-95
2021/12/30 02:58:53;;;;;;;25.55;4.25;;;;;;;;;;5037951;28;20112;-95
2021/12/30 03:01:27;;;;;;;28.15;4.93;;;;;;;;;;5038224;28;20121;-95
2021/12/30 03:03:54;;;;;;;23.85;3.80;;;;;;;;;;5037885;28;20508;-94
2021/12/30 03:06:21;;;;;;;17.63;3.42;;;;;;;;;;5038164;28;20021;-94
2021/12/30 03:08:50;;;;;;;15.98;4.82;;;;;;;;;;5038350;28;20108;-95
2021/12/30 03:11:19;;;;;;;23.25;4.50;;;;;;;;;;5041532;28;20483;-96
2021/12/30 03:13:46;;;;;;;20.08;3.80;;;;;;;;;;5040949;28;20028;-94
2021/12/30 03:16:16;;;;;;;22.70;4.97;;;;;;;;;;5040364;28;20055;-95
2021/12/30 03:18:43;;;;;;;19.33;4.13;;;;;;;;;;5043976;28;20048;-95
2021/12/30 03:21:10;;;;;;;18.88;4.13;;;;;;;;;;5044415;28;20147;-96
2021/12/30 03:23:37;;;;;;;20.08;5.18;;;;;;;;;;5043968;28;20025;-95
2021/12/30 03:26:04;;;;;;;21.30;4.28;;;;;;;;;;5044776;28;20097;-96
2021/12/30 03:28:30;;;;;;;21.75;4.22;;;;;;;;;;5043788;28;20479;-96
2021/12/30 03:30:58;;;;;;;17.40;3.28;;;;;;;;;;5044116;28;20029;-95
2021/12/30 03:33:28;;;;;;;19.52;4.03;;;;;;;;;;5044368;28;20032;-96
2021/12/30 03:35:54;;;;;;;13.90;3.40;;;;;;;;;;5043661;28;20032;-95
2021/12/30 03:38:21;;;;;;;17.98;4.55;;;;;;;;;;5041912;28;20087;-95
2021/12/30 03:40:48;;;;;;;21.83;4.50;;;;;;;;;;5038678;28;20120;-95
2021/12/30 03:43:14;;;;;;;21.17;4.63;;;;;;;;;;5038196;28;20021;-96
2021/12/30 03:45:40;;;;;;;20.10;3.70;;;;;;;;;;5037982;28;20032;-96
2021/12/30 03:48:06;;;;;;;25.27;4.38;;;;;;;;;;5039496;28;20032;-96
2021/12/30 03:50:32;;;;;;;23.25;4.28;;;;;;;;;;5038522;28;20546;-96
2021/12/30 03:53:00;;;;;;;24.08;3.65;;;;;;;;;;5040862;28;20132;-96
2021/12/30 03:55:28;;;;;;;19.35;4.03;;;;;;;;;;5042343;28;20052;-95
2021/12/30 03:58:02;;;;;;;23.52;3.92;;;;;;;;;;5043548;28;20052;-96
2021/12/30 04:00:28;;;;;;;25.30;3.33;;;;;;;;;;5042826;28;20363;-96
2021/12/30 04:02:54;;;;;;;18.33;3.63;;;;;;;;;;5042830;28;20470;-95
2021/12/30 04:05:21;;;;;;;17.50;4.18;;;;;;;;;;5043935;28;20470;-95
2021/12/30 04:07:48;;;;;;;16.35;3.38;;;;;;;;;;5043606;28;20036;-96
2021/12/30 04:10:15;;;;;;;18.35;3.42;;;;;;;;;;5043549;28;20021;-96
2021/12/30 04:12:42;;;;;;;12.75;3.47;;;;;;;;;;5043425;28;20036;-96
2021/12/30 04:15:09;;;;;;;16.33;3.15;;;;;;;;;;5043117;28;20120;-96
2021/12/30 04:17:35;;;;;;;13.27;3.38;;;;;;;;;;5042413;28;20475;-96
2021/12/30 04:20:02;;;;;;;15.77;2.83;;;;;;;;;;5042601;28;20021;-96
2021/12/30 04:22:28;;;;;;;15.48;3.67;;;;;;;;;;5042046;28;20402;-96
2021/12/30 04:24:54;;;;;;;18.08;3.85;;;;;;;;;;5042594;28;20029;-96
2021/12/30 04:27:20;;;;;;;17.90;3.45;;;;;;;;;;5044667;28;20029;-96
2021/12/30 04:29:46;;;;;;;16.48;2.97;;;;;;;;;;5046420;28;20032;-96
2021/12/30 04:32:13;;;;;;;16.38;3.58;;;;;;;;;;5047815;28;20434;-96
2021/12/30 04:34:39;;;;;;;19.00;3.53;;;;;;;;;;5048097;28;20092;-96
2021/12/30 04:37:05;;;;;;;15.00;3.65;;;;;;;;;;5050107;28;20372;-96
2021/12/30 04:39:32;;;;;;;12.57;2.72;;;;;;;;;;5054514;28;20005;-96
2021/12/30 04:42:01;;;;;;;9.95;3.17;;;;;;;;;;5050183;28;20024;-94
2021/12/30 04:44:27;;;;;;;13.70;3.20;;;;;;;;;;5040571;28;20092;-95
2021/12/30 04:46:53;;;;;;;14.00;2.90;;;;;;;;;;5040630;28;20061;-94
2021/12/30 04:49:19;;;;;;;16.20;3.65;;;;;;;;;;5040736;28;20071;-94
2021/12/30 04:51:45;;;;;;;16.88;2.80;;;;;;;;;;5040751;28;20116;-95
2021/12/30 04:54:12;;;;;;;14.70;2.78;;;;;;;;;;5037164;28;20407;-96
2021/12/30 04:56:38;;;;;;;16.83;2.38;;;;;;;;;;5037620;28;20034;-96
2021/12/30 04:59:04;;;;;;;12.20;2.50;;;;;;;;;;5036544;28;20049;-95
2021/12/30 05:01:30;;;;;;;16.27;2.95;;;;;;;;;;5036773;28;20060;-96
2021/12/30 05:03:56;;;;;;;13.80;2.78;;;;;;;;;;5035865;28;20026;-95
2021/12/30 05:06:23;;;;;;;15.80;3.17;;;;;;;;;;5038556;28;20088;-95
2021/12/30 05:08:49;;;;;;;18.42;4.72;;;;;;;;;;5043181;28;20022;-95
2021/12/30 05:11:15;;;;;;;15.45;3.40;;;;;;;;;;5041059;28;20025;-96
2021/12/30 05:13:41;;;;;;;13.95;3.58;;;;;;;;;;5041395;28;20026;-96
2021/12/30 05:16:07;;;;;;;19.90;4.25;;;;;;;;;;5039041;28;20120;-96
2021/12/30 05:18:36;;;;;;;20.75;3.88;;;;;;;;;;5037438;28;20116;-96
2021/12/30 05:21:03;;;;;;;20.55;3.92;;;;;;;;;;5036563;28;20018;-95
2021/12/30 05:23:30;;;;;;;14.75;3.25;;;;;;;;;;5036589;28;20089;-95
2021/12/30 05:25:57;;;;;;;18.48;3.75;;;;;;;;;;5036589;28;20025;-95
2021/12/30 05:28:23;;;;;;;9.48;2.30;;;;;;;;;;5036682;28;20103;-95
2021/12/30 05:30:49;;;;;;;17.33;2.95;;;;;;;;;;5036901;28;20013;-95
2021/12/30 05:36:20;;;;;;;20.80;3.80;;;;;;;;;;5035669;28;20068;-95
2021/12/30 05:38:47;;;;;;;17.30;3.13;;;;;;;;;;5036391;28;20030;-95
2021/12/30 05:41:14;;;;;;;24.17;3.75;;;;;;;;;;5036291;28;20045;-95
2021/12/30 05:43:40;;;;;;;22.13;4.22;;;;;;;;;;5036199;28;20635;-94
2021/12/30 05:46:06;;;;;;;19.45;3.55;;;;;;;;;;5035945;28;20026;-95
2021/12/30 05:48:33;;;;;;;17.30;3.28;;;;;;;;;;5036147;28;20021;-96
2021/12/30 05:51:00;;;;;;;12.30;2.70;;;;;;;;;;5036034;28;20021;-96
2021/12/30 05:53:27;;;;;;;16.52;3.08;;;;;;;;;;5035729;28;20045;-94
2021/12/30 05:55:53;;;;;;;9.50;3.30;;;;;;;;;;5035876;28;20475;-95
2021/12/30 05:58:20;;;;;;;14.48;2.58;;;;;;;;;;5036426;28;20060;-94
2021/12/30 06:00:47;;;;;;;14.35;3.63;;;;;;;;;;5035944;28;20032;-95
2021/12/30 06:03:14;;;;;;;12.98;2.53;;;;;;;;;;5036051;28;20068;-95
2021/12/30 06:05:40;;;;;;;18.85;3.20;;;;;;;;;;5035898;28;20083;-94
2021/12/30 06:08:07;;;;;;;19.92;3.25;;;;;;;;;;5035584;28;20026;-94
2021/12/30 06:10:33;;;;;;;18.33;3.28;;;;;;;;;;5035887;28;20097;-95
2021/12/30 06:12:59;;;;;;;23.98;4.00;;;;;;;;;;5035898;28;20025;-94
2021/12/30 06:15:25;;;;;;;20.38;4.38;;;;;;;;;;5034479;28;20075;-93
2021/12/30 06:17:51;;;;;;;17.90;4.30;;;;;;;;;;5035516;28;20029;-93
2021/12/30 06:20:17;;;;;;;26.15;4.63;;;;;;;;;;5035619;28;20108;-94
2021/12/30 06:22:44;;;;;;;18.50;4.03;;;;;;;;;;5035453;28;20053;-95
2021/12/30 06:25:11;;;;;;;22.63;5.22;;;;;;;;;;5035523;28;20026;-96
2021/12/30 06:27:37;;;;;;;21.00;3.67;;;;;;;;;;5036405;28;20117;-95
2021/12/30 06:30:05;;;;;;;16.55;2.97;;;;;;;;;;5037047;28;20082;-96
2021/12/30 06:32:31;;;;;;;16.38;3.30;;;;;;;;;;5037161;28;20494;-96
2021/12/30 06:34:57;;;;;;;20.90;4.13;;;;;;;;;;5038697;28;20021;-95
2021/12/30 06:37:24;;;;;;;22.35;4.28;;;;;;;;;;5035823;28;20029;-96
2021/12/30 06:39:50;;;;;;;18.45;4.03;;;;;;;;;;5037467;28;20032;-95
2021/12/30 06:42:24;;;;;;;23.48;4.55;;;;;;;;;;5043920;28;20029;-96
2021/12/30 06:44:50;;;;;;;24.85;6.13;;;;;;;;;;5064326;28;20394;-96
2021/12/30 06:47:16;;;;;;;24.25;6.97;;;;;;;;;;5058331;28;20033;-93
2021/12/30 06:49:42;;;;;;;23.42;5.82;;;;;;;;;;5054807;28;20021;-94
2021/12/30 06:52:10;;;;;;;19.48;5.93;;;;;;;;;;5055432;28;20025;-94
2021/12/30 06:54:37;;;;;;;25.55;5.25;;;;;;;;;;5054283;28;20550;-94
2021/12/30 06:57:06;;;;;;;28.60;6.60;;;;;;;;;;5055097;28;20045;-93
2021/12/30 06:59:33;;;;;;;37.13;15.23;;;;;;;;;;5054634;28;20021;-94
2021/12/30 07:02:02;;;;;;;24.48;6.88;;;;;;;;;;5054524;28;20040;-94
2021/12/30 07:04:28;;;;;;;39.88;12.27;;;;;;;;;;5054662;28;20025;-94
2021/12/30 07:06:54;;;;;;;33.95;11.38;;;;;;;;;;5054640;28;20037;-92
2021/12/30 07:09:21;;;;;;;29.42;9.40;;;;;;;;;;5054723;28;20431;-92
2021/12/30 07:11:49;;;;;;;24.50;5.50;;;;;;;;;;5054532;28;20025;-93
2021/12/30 07:14:17;;;;;;;22.33;8.38;;;;;;;;;;5054470;28;20021;-93
2021/12/30 07:16:43;;;;;;;24.70;9.52;;;;;;;;;;5054218;28;20021;-94
2021/12/30 07:21:59;;;;;;;31.52;12.90;;;;;;;;;;5054007;28;20673;-71
2021/12/30 07:24:25;;;;;;;17.85;4.38;;;;;;;;;;5041416;28;20524;-73
2021/12/30 07:26:52;;;;;;;19.42;3.75;;;;;;;;;;5048092;28;20033;-71
2021/12/30 07:29:18;;;;;;;31.08;5.80;;;;;;;;;;5028516;28;20028;-72
2021/12/30 07:31:45;;;;;;;25.63;6.47;;;;;;;;;;5042996;28;20029;-73
2021/12/30 07:34:11;;;;;;;30.48;10.80;;;;;;;;;;5046160;28;20431;-72
2021/12/30 07:36:37;;;;;;;23.23;4.65;;;;;;;;;;5045735;28;20259;-72
2021/12/30 07:39:04;;;;;;;22.05;6.97;;;;;;;;;;5065155;28;20024;-72
2021/12/30 07:41:30;;;;;;;17.42;4.30;;;;;;;;;;5064368;28;20086;-73
2021/12/30 07:43:56;;;;;;;28.90;6.93;;;;;;;;;;5065820;28;20643;-72
2021/12/30 07:46:22;;;;;;;22.33;6.45;;;;;;;;;;5065296;28;20366;-73
2021/12/30 07:48:48;;;;;;;23.58;5.55;;;;;;;;;;5043898;28;20033;-74
2021/12/30 07:51:15;;;;;;;18.58;5.63;;;;;;;;;;5041854;28;20048;-73
2021/12/30 07:53:41;;;;;;;26.40;7.13;;;;;;;;;;5043391;28;20528;-72
2021/12/30 07:56:11;;;;;;;24.80;6.50;;;;;;;;;;5043670;28;20095;-73
2021/12/30 07:58:38;;;;;;;23.88;6.68;;;;;;;;;;5025601;28;20036;-73
2021/12/30 08:01:04;;;;;;;26.33;6.40;;;;;;;;;;5023337;28;20025;-74
2021/12/30 08:03:30;;;;;;;27.55;9.48;;;;;;;;;;5023102;28;20780;-73
2021/12/30 08:05:56;;;;;;;29.05;9.10;;;;;;;;;;5040837;28;20485;-72
2021/12/30 08:08:22;;;;;;;23.88;5.53;;;;;;;;;;5038692;28;20021;-73
2021/12/30 08:10:49;;;;;;;16.38;4.82;;;;;;;;;;5044830;28;20021;-73
2021/12/30 08:13:15;;;;;;;24.17;5.68;;;;;;;;;;5044663;28;20097;-72
2021/12/30 08:15:42;;;;;;;26.90;4.85;;;;;;;;;;5045176;28;20128;-73
2021/12/30 08:18:09;;;;;;;20.48;4.78;;;;;;;;;;5025915;28;20022;-72
2021/12/30 08:20:35;;;;;;;18.92;3.80;;;;;;;;;;5061201;28;20135;-73
2021/12/30 08:23:01;;;;;;;21.98;4.13;;;;;;;;;;5056429;28;20025;-72
2021/12/30 08:25:27;;;;;;;12.05;3.78;;;;;;;;;;5035591;28;20045;-72
2021/12/30 08:27:55;;;;;;;25.73;5.70;;;;;;;;;;5028830;28;20036;-72
2021/12/30 08:30:22;;;;;;;16.00;4.10;;;;;;;;;;5033645;28;20610;-73
2021/12/30 08:32:48;;;;;;;17.92;4.03;;;;;;;;;;5025661;28;20053;-73
2021/12/30 08:35:16;;;;;;;23.35;4.65;;;;;;;;;;5012465;28;20021;-71
2021/12/30 08:37:42;;;;;;;19.95;4.38;;;;;;;;;;5031515;28;20100;-72
2021/12/30 08:40:10;;;;;;;19.08;4.68;;;;;;;;;;5021768;28;20031;-73
2021/12/30 08:42:36;;;;;;;25.90;4.70;;;;;;;;;;5007241;28;20516;-72
2021/12/30 08:45:03;;;;;;;16.55;3.67;;;;;;;;;;5024383;28;20037;-72
2021/12/30 08:47:31;;;;;;;19.05;4.82;;;;;;;;;;5037243;28;20138;-73
2021/12/30 08:49:57;;;;;;;20.13;4.57;;;;;;;;;;5042618;28;20078;-72
2021/12/30 08:52:24;;;;;;;19.60;4.78;;;;;;;;;;5041905;28;20025;-72
2021/12/30 08:54:51;;;;;;;24.65;4.07;;;;;;;;;;5034892;28;20514;-73
2021/12/30 08:57:18;;;;;;;26.52;4.93;;;;;;;;;;5028284;28;20052;-72
2021/12/30 08:59:44;;;;;;;18.83;5.20;;;;;;;;;;5037164;28;20035;-73
2021/12/30 09:02:11;;;;;;;27.77;6.15;;;;;;;;;;5062824;28;20025;-73
2021/12/30 09:04:37;;;;;;;22.23;5.68;;;;;;;;;;5051605;28;20397;-72
2021/12/30 09:07:04;;;;;;;15.95;4.72;;;;;;;;;;5043536;28;20116;-73
2021/12/30 09:09:30;;;;;;;163.35;77.90;;;;;;;;;;5037983;28;20029;-73
2021/12/30 09:11:56;;;;;;;284.30;128.27;;;;;;;;;;5023490;28;20032;-75
2021/12/30 09:14:23;;;;;;;86.07;41.78;;;;;;;;;;5044005;28;20025;-72
2021/12/30 09:16:49;;;;;;;73.18;36.45;;;;;;;;;;5023874;28;20075;-71
2021/12/30 09:19:16;;;;;;;62.38;35.83;;;;;;;;;;5033664;28;20120;-73
2021/12/30 09:21:43;;;;;;;54.15;23.98;;;;;;;;;;5034017;28;20048;-72
2021/12/30 09:24:10;;;;;;;41.85;14.85;;;;;;;;;;5038581;28;20029;-72
2021/12/30 09:26:36;;;;;;;34.90;12.30;;;;;;;;;;5041343;28;20033;-72
2021/12/30 09:29:10;;;;;;;37.42;12.27;;;;;;;;;;5034737;28;20026;-71
2021/12/30 09:31:36;;;;;;;26.23;6.70;;;;;;;;;;5027395;28;20482;-72
2021/12/30 09:34:02;;;;;;;19.40;5.53;;;;;;;;;;5024147;28;20040;-71
2021/12/30 09:36:30;;;;;;;24.30;5.85;;;;;;;;;;5038429;28;20039;-73
2021/12/30 09:38:56;;;;;;;26.75;6.10;;;;;;;;;;5029656;28;20547;-72
2021/12/30 09:41:22;;;;;;;19.88;4.60;;;;;;;;;;5032011;28;20451;-71
2021/12/30 09:43:49;;;;;;;22.40;4.57;;;;;;;;;;5051684;28;20033;-71
2021/12/30 09:46:16;;;;;;;25.15;5.10;;;;;;;;;;5038543;28;20150;-71
2021/12/30 09:48:43;;;;;;;32.97;5.28;;;;;;;;;;5042794;28;20025;-71
2021/12/30 09:51:09;;;;;;;20.17;5.55;;;;;;;;;;5014125;28;20029;-71
2021/12/30 09:53:36;;;;;;;29.13;7.07;;;;;;;;;;5020919;28;20087;-72
2021/12/30 09:56:02;;;;;;;19.42;4.93;;;;;;;;;;5022763;28;20064;-72
2021/12/30 09:58:29;;;;;;;26.77;7.30;;;;;;;;;;5032406;28;20456;-71
2021/12/30 10:00:56;;;;;;;18.45;5.90;;;;;;;;;;5038480;28;20556;-71
2021/12/30 10:03:22;;;;;;;23.77;4.88;;;;;;;;;;5034257;28;20047;-71
2021/12/30 10:05:49;;;;;;;17.10;4.38;;;;;;;;;;5031621;28;20128;-71
2021/12/30 10:08:24;;;;;;;20.20;4.40;;;;;;;;;;5050750;28;20114;-71
2021/12/30 10:10:55;;;;;;;26.45;4.65;;;;;;;;;;5034626;28;20048;-72
2021/12/30 10:13:23;;;;;;;22.38;4.40;;;;;;;;;;5031456;28;20021;-73
2021/12/30 10:16:01;;;;;;;22.95;5.82;;;;;;;;;;5022676;28;20021;-71
2021/12/30 10:18:44;;;;;;;22.15;4.30;;;;;;;;;;5034782;28;20021;-71
2021/12/30 10:21:19;;;;;;;32.15;5.55;;;;;;;;;;5030649;28;20069;-71
2021/12/30 10:23:46;;;;;;;37.85;5.60;;;;;;;;;;5029392;28;20078;-71
2021/12/30 10:26:13;;;;;;;32.67;5.07;;;;;;;;;;5060259;28;20039;-71
2021/12/30 10:28:40;;;;;;;19.83;4.22;;;;;;;;;;5052825;28;20074;-71
2021/12/30 10:31:12;;;;;;;24.35;4.45;;;;;;;;;;5040938;28;20032;-71
2021/12/30 10:33:51;;;;;;;22.02;3.58;;;;;;;;;;5027542;28;20112;-71
2021/12/30 10:36:18;;;;;;;23.05;4.43;;;;;;;;;;5031961;28;20471;-71
2021/12/30 10:38:44;;;;;;;18.40;4.88;;;;;;;;;;5028094;28;20167;-72
2021/12/30 10:41:11;;;;;;;23.00;5.10;;;;;;;;;;5034125;28;20108;-72
2021/12/30 10:46:19;;;;;;;21.13;4.45;;;;;;;;;;5048147;28;20035;-71
2021/12/30 10:49:05;;;;;;;18.85;4.05;;;;;;;;;;5031736;28;20017;-72
2021/12/30 10:51:42;;;;;;;23.40;4.45;;;;;;;;;;5025154;28;20037;-71
2021/12/30 10:54:17;;;;;;;17.42;4.75;;;;;;;;;;5039198;28;20112;-72
2021/12/30 10:57:07;;;;;;;21.10;5.10;;;;;;;;;;5061730;28;20032;-72
2021/12/30 10:59:36;;;;;;;22.75;4.63;;;;;;;;;;5024714;28;20035;-71
2021/12/30 11:02:02;;;;;;;19.50;4.03;;;;;;;;;;5005268;28;20034;-71
2021/12/30 11:04:33;;;;;;;17.38;4.60;;;;;;;;;;5031768;28;20587;-71
2021/12/30 11:06:59;;;;;;;23.85;5.15;;;;;;;;;;5059635;28;20273;-71
2021/12/30 11:09:25;;;;;;;17.80;4.47;;;;;;;;;;5028689;28;20021;-71
2021/12/30 11:11:53;;;;;;;20.67;4.45;;;;;;;;;;5038928;28;20041;-71
2021/12/30 11:14:24;;;;;;;19.35;4.18;;;;;;;;;;5033380;28;20032;-71
2021/12/30 11:17:10;;;;;;;18.42;4.35;;;;;;;;;;5028454;28;20044;-73
2021/12/30 11:19:39;;;;;;;19.30;3.92;;;;;;;;;;5035327;28;20075;-71
2021/12/30 11:22:07;;;;;;;24.25;5.30;;;;;;;;;;5032442;28;20041;-71
2021/12/30 11:24:34;;;;;;;21.50;4.45;;;;;;;;;;5040388;28;20029;-72
2021/12/30 11:27:03;;;;;;;23.85;4.80;;;;;;;;;;5037083;28;20032;-72
2021/12/30 11:29:30;;;;;;;20.75;4.03;;;;;;;;;;5043718;28;20049;-71
2021/12/30 11:31:57;;;;;;;19.75;5.05;;;;;;;;;;5038364;28;20758;-72
2021/12/30 11:34:23;;;;;;;29.88;5.20;;;;;;;;;;5028053;28;20118;-71
2021/12/30 11:36:50;;;;;;;19.48;4.32;;;;;;;;;;5028502;28;20029;-72
2021/12/30 11:39:18;;;;;;;19.08;5.30;;;;;;;;;;5045933;28;20024;-73
2021/12/30 11:41:46;;;;;;;24.90;4.38;;;;;;;;;;5043746;28;20020;-72
2021/12/30 11:44:51;;;;;;;15.48;3.88;;;;;;;;;;5041848;28;20037;-70
2021/12/30 11:47:33;;;;;;;20.48;4.03;;;;;;;;;;4957479;28;20224;-71
2021/12/30 11:50:05;;;;;;;15.60;3.53;;;;;;;;;;4968058;28;20035;-71
2021/12/30 11:52:31;;;;;;;;;;;;;;;;;;5015718;28;20519;-70
2021/12/30 11:54:58;;;;;;;22.50;5.03;;;;;;;;;;5040452;28;19956;-71
2021/12/30 11:57:34;;;;;;;19.38;4.30;;;;;;;;;;5035861;28;20036;-71
2021/12/30 12:00:20;;;;;;;9.48;3.42;;;;;;;;;;5038441;28;20024;-72
2021/12/30 12:02:46;;;;;;;12.82;3.63;;;;;;;;;;5047557;28;21569;-71
2021/12/30 12:05:31;;;;;;;16.25;4.22;;;;;;;;;;5031336;28;20509;-71
2021/12/30 12:08:07;;;;;;;21.50;3.50;;;;;;;;;;5031436;28;20059;-73
2021/12/30 12:10:33;;;;;;;9.90;2.65;;;;;;;;;;5045118;28;20025;-71
2021/12/30 12:13:19;;;;;;;10.15;2.85;;;;;;;;;;5042610;28;20025;-72
2021/12/30 12:15:46;;;;;;;11.10;3.63;;;;;;;;;;5054365;28;20029;-71
2021/12/30 12:18:13;;;;;;;7.82;2.60;;;;;;;;;;5057018;28;20020;-73
2021/12/30 12:20:50;;;;;;;8.07;2.45;;;;;;;;;;5052395;28;20037;-70
2021/12/30 12:23:34;;;;;;;7.50;2.30;;;;;;;;;;5041829;28;20024;-74
2021/12/30 12:26:11;;;;;;;6.05;2.60;;;;;;;;;;5040509;28;20037;-71
2021/12/30 12:28:38;;;;;;;5.97;2.38;;;;;;;;;;5050137;28;20028;-77
2021/12/30 12:31:08;;;;;;;11.23;3.33;;;;;;;;;;5055763;28;20640;-75
2021/12/30 12:33:36;;;;;;;9.38;3.13;;;;;;;;;;5044455;28;20025;-75
2021/12/30 12:36:09;;;;;;;10.93;2.97;;;;;;;;;;5022412;28;20033;-71
2021/12/30 12:38:38;;;;;;;16.58;3.95;;;;;;;;;;5046587;28;20033;-71
2021/12/30 12:41:16;;;;;;;14.43;3.47;;;;;;;;;;5057229;28;20650;-71
2021/12/30 12:43:42;;;;;;;10.30;3.33;;;;;;;;;;5057558;28;20025;-71
2021/12/30 12:46:09;;;;;;;9.43;3.10;;;;;;;;;;5035663;28;20033;-71
2021/12/30 12:48:39;;;;;;;9.20;3.00;;;;;;;;;;5041175;28;20027;-71
2021/12/30 12:51:09;;;;;;;12.90;3.50;;;;;;;;;;5039030;28;20167;-71
2021/12/30 12:53:36;;;;;;;12.93;3.90;;;;;;;;;;5045849;28;20493;-71
2021/12/30 12:56:19;;;;;;;10.32;2.72;;;;;;;;;;5035258;28;20061;-70
2021/12/30 12:58:47;;;;;;;10.93;2.50;;;;;;;;;;5049211;28;20032;-71
2021/12/30 13:01:21;;;;;;;10.05;3.15;;;;;;;;;;5038179;28;20036;-70
2021/12/30 13:03:47;;;;;;;9.90;2.35;;;;;;;;;;5041411;28;20113;-70
2021/12/30 13:06:16;;;;;;;9.68;3.00;;;;;;;;;;5033861;28;20049;-71
2021/12/30 13:08:43;;;;;;;12.27;3.05;;;;;;;;;;5044696;28;20025;-71
2021/12/30 13:11:11;;;;;;;9.27;2.85;;;;;;;;;;5049260;28;20078;-71
2021/12/30 13:13:37;;;;;;;11.77;3.53;;;;;;;;;;5040662;28;20116;-70
2021/12/30 13:16:21;;;;;;;12.43;3.17;;;;;;;;;;5050070;28;20104;-71
2021/12/30 13:19:06;;;;;;;13.50;3.05;;;;;;;;;;5037717;28;20016;-70
2021/12/30 13:21:42;;;;;;;12.32;3.15;;;;;;;;;;5033570;28;20167;-73
2021/12/30 13:24:23;;;;;;;13.48;3.28;;;;;;;;;;5035101;28;20026;-71
2021/12/30 13:26:49;;;;;;;10.00;3.13;;;;;;;;;;5047211;28;20060;-71
2021/12/30 13:29:23;;;;;;;17.67;3.78;;;;;;;;;;5045266;28;20029;-72
2021/12/30 13:31:59;;;;;;;16.42;3.67;;;;;;;;;;5017702;28;20033;-71
2021/12/30 13:34:25;;;;;;;15.75;3.08;;;;;;;;;;5027821;28;20029;-71
2021/12/30 13:36:52;;;;;;;10.90;2.50;;;;;;;;;;5031147;28;20072;-71
2021/12/30 13:39:19;;;;;;;17.75;2.80;;;;;;;;;;5045654;28;20029;-69
2021/12/30 13:41:52;;;;;;;12.57;3.50;;;;;;;;;;5048521;28;20025;-70
2021/12/30 13:44:21;;;;;;;11.75;3.30;;;;;;;;;;5048856;28;20033;-70
2021/12/30 13:46:48;;;;;;;11.90;3.42;;;;;;;;;;5035332;28;20075;-69
2021/12/30 13:49:14;;;;;;;24.10;3.67;;;;;;;;;;5044330;28;20055;-70
2021/12/30 13:51:41;;;;;;;13.52;3.40;;;;;;;;;;5048775;28;20155;-70
2021/12/30 13:54:08;;;;;;;13.35;4.03;;;;;;;;;;5043580;28;20033;-70
2021/12/30 13:56:34;;;;;;;10.77;4.07;;;;;;;;;;5043216;28;20485;-70
2021/12/30 13:59:07;;;;;;;12.63;4.65;;;;;;;;;;5044336;28;20044;-70
2021/12/30 14:01:34;;;;;;;20.05;5.53;;;;;;;;;;5031996;28;20021;-70
2021/12/30 14:04:03;;;;;;;13.40;5.38;;;;;;;;;;5032487;28;20746;-70
2021/12/30 14:06:30;;;;;;;18.02;6.50;;;;;;;;;;5044368;28;20468;-69
2021/12/30 14:08:57;;;;;;;19.35;6.45;;;;;;;;;;5040452;28;20035;-69
2021/12/30 14:11:31;;;;;;;14.07;5.00;;;;;;;;;;5033971;28;20021;-70
2021/12/30 14:13:57;;;;;;;13.88;4.25;;;;;;;;;;5040202;28;20073;-70
2021/12/30 14:16:30;;;;;;;8.82;3.40;;;;;;;;;;5044281;28;20704;-70
2021/12/30 14:19:00;;;;;;;8.55;3.15;;;;;;;;;;5037669;28;20029;-70
2021/12/30 14:21:28;;;;;;;14.63;4.65;;;;;;;;;;5033400;28;20118;-70
2021/12/30 14:23:55;;;;;;;13.60;5.55;;;;;;;;;;5027295;28;20025;-72
2021/12/30 14:26:26;;;;;;;13.27;5.38;;;;;;;;;;5034495;28;20045;-70
2021/12/30 14:28:56;;;;;;;16.67;4.72;;;;;;;;;;5038414;28;20029;-72
2021/12/30 14:31:31;;;;;;;16.73;4.90;;;;;;;;;;5033708;28;20027;-70
2021/12/30 14:34:06;;;;;;;13.30;4.65;;;;;;;;;;5039394;28;20615;-70
2021/12/30 14:36:33;;;;;;;16.08;4.13;;;;;;;;;;5048059;28;20520;-70
2021/12/30 14:38:59;;;;;;;11.35;3.85;;;;;;;;;;5023863;28;20033;-70
2021/12/30 14:41:26;;;;;;;11.45;4.22;;;;;;;;;;5043963;28;20387;-70
2021/12/30 14:44:01;;;;;;;10.75;3.53;;;;;;;;;;5035227;28;20028;-70
2021/12/30 14:46:27;;;;;;;11.82;3.55;;;;;;;;;;5036819;28;20493;-69
2021/12/30 14:49:17;;;;;;;15.38;4.75;;;;;;;;;;5040370;28;20083;-70
2021/12/30 14:51:43;;;;;;;11.95;3.72;;;;;;;;;;5008771;28;20210;-70
2021/12/30 14:54:11;;;;;;;16.75;4.70;;;;;;;;;;5031605;28;20029;-70
2021/12/30 14:56:39;;;;;;;19.05;5.15;;;;;;;;;;5043349;28;20703;-70
2021/12/30 14:59:06;;;;;;;10.88;3.67;;;;;;;;;;5040634;28;20674;-69
2021/12/30 15:01:32;;;;;;;13.15;4.13;;;;;;;;;;5044197;28;20065;-72
2021/12/30 15:03:59;;;;;;;11.02;3.60;;;;;;;;;;5032839;28;20028;-70
2021/12/30 15:06:25;;;;;;;17.58;4.40;;;;;;;;;;5044389;28;20037;-70
2021/12/30 15:08:52;;;;;;;10.85;3.65;;;;;;;;;;5044679;28;20829;-71
2021/12/30 15:11:19;;;;;;;14.63;5.10;;;;;;;;;;5039942;28;20028;-70
2021/12/30 15:13:45;;;;;;;15.23;4.45;;;;;;;;;;5038577;28;20528;-70
2021/12/30 15:16:12;;;;;;;17.98;6.47;;;;;;;;;;5028619;28;20044;-70
2021/12/30 15:18:38;;;;;;;16.83;5.97;;;;;;;;;;5042518;28;20021;-70
2021/12/30 15:21:04;;;;;;;14.88;5.63;;;;;;;;;;5052174;28;20061;-70
2021/12/30 15:23:31;;;;;;;19.05;5.47;;;;;;;;;;5050288;28;20036;-70
2021/12/30 15:25:57;;;;;;;21.10;4.30;;;;;;;;;;5043281;28;20045;-70
2021/12/30 15:28:24;;;;;;;19.35;4.03;;;;;;;;;;5030280;28;20025;-72
2021/12/30 15:30:51;;;;;;;11.77;3.50;;;;;;;;;;5036461;28;20090;-70
2021/12/30 15:33:18;;;;;;;12.88;3.75;;;;;;;;;;5028689;28;20025;-70
2021/12/30 15:35:49;;;;;;;16.48;4.30;;;;;;;;;;5051544;28;20484;-70
2021/12/30 15:38:16;;;;;;;15.35;4.75;;;;;;;;;;5048001;28;20036;-70
2021/12/30 15:40:44;;;;;;;13.00;4.28;;;;;;;;;;5044662;28;20115;-69
2021/12/30 15:43:10;;;;;;;15.77;4.88;;;;;;;;;;5042173;28;20025;-71
2021/12/30 15:45:36;;;;;;;9.73;4.88;;;;;;;;;;5044757;28;20086;-70
2021/12/30 15:48:03;;;;;;;16.52;4.43;;;;;;;;;;5048818;28;20033;-70
2021/12/30 15:50:29;;;;;;;13.23;4.63;;;;;;;;;;5051113;28;20036;-70
2021/12/30 15:52:57;;;;;;;16.83;4.35;;;;;;;;;;5052647;28;20131;-70
2021/12/30 15:55:25;;;;;;;19.77;4.00;;;;;;;;;;5045967;28;20104;-70
2021/12/30 15:57:53;;;;;;;16.50;4.28;;;;;;;;;;5045286;28;20031;-73